Time,TemperatureF,DewpointF,PressureIn,WindDirection,WindDirectionDegrees,WindSpeedMPH,WindSpeedGustMPH,Humidity,HourlyPrecipIn,Conditions,Clouds,dailyrainin,SoftwareType,DateUTC
2013-07-09 00:03:00,72.5,67.0,30.14,SSE,158,3.0,4.0,84,0.00,,,0.00,weatherlink.com 1.10,2013-07-08 22:03:00,
2013-07-09 00:18:00,72.2,68.0,30.14,SSE,148,3.0,5.0,86,0.00,,,0.00,weatherlink.com 1.10,2013-07-08 22:18:00,
2013-07-09 00:33:00,71.7,67.0,30.14,SSE,152,0.0,3.0,86,0.00,,,0.00,weatherlink.com 1.10,2013-07-08 22:33:00,
2013-07-09 01:33:00,71.2,68.0,30.14,SE,131,1.0,4.0,90,0.00,,,0.00,weatherlink.com 1.10,2013-07-08 23:33:00,
2013-07-09 02:04:00,69.9,67.0,30.14,ESE,108,0.0,0.0,91,0.00,,,0.00,weatherlink.com 1.10,2013-07-09 00:04:00,
2013-07-09 02:34:00,69.4,65.0,30.12,SSW,212,2.0,3.0,86,0.00,,,0.00,weatherlink.com 1.10,2013-07-09 00:34:00,
2013-07-09 02:49:00,69.1,65.0,30.12,SW,219,0.0,1.0,86,0.00,,,0.00,weatherlink.com 1.10,2013-07-09 00:49:00,
2013-07-09 03:04:00,69.8,66.0,30.12,SW,217,1.0,2.0,88,0.00,,,0.00,weatherlink.com 1.10,2013-07-09 01:04:00,
2013-07-09 03:19:00,69.6,66.0,30.11,SSE,148,3.0,4.0,89,0.00,,,0.00,weatherlink.com 1.10,2013-07-09 01:19:00,
2013-07-09 03:34:00,68.9,66.0,30.11,SSW,201,2.0,3.0,89,0.00,,,0.00,weatherlink.com 1.10,2013-07-09 01:34:00,
2013-07-09 03:49:00,68.8,65.0,30.10,South,191,0.0,3.0,88,0.00,,,0.00,weatherlink.com 1.10,2013-07-09 01:49:00,
2013-07-09 04:04:00,68.9,65.0,30.10,NW,312,0.0,1.0,86,0.00,,,0.00,weatherlink.com 1.10,2013-07-09 02:04:00,
2013-07-09 04:49:00,68.4,65.0,30.10,ESE,112,3.0,3.0,90,0.00,,,0.00,weatherlink.com 1.10,2013-07-09 02:49:00,
2013-07-09 05:18:00,67.8,65.0,30.09,ENE,67,0.0,1.0,91,0.00,,,0.00,weatherlink.com 1.10,2013-07-09 03:18:00,
2013-07-09 05:33:00,67.2,65.0,30.09,West,263,0.0,1.0,92,0.00,,,0.00,weatherlink.com 1.10,2013-07-09 03:33:00,
2013-07-09 05:48:00,66.9,65.0,30.09,WNW,287,0.0,1.0,93,0.00,,,0.00,weatherlink.com 1.10,2013-07-09 03:48:00,
2013-07-09 06:03:00,67.1,65.0,30.09,WNW,288,0.0,0.0,94,0.00,,,0.00,weatherlink.com 1.10,2013-07-09 04:03:00,
2013-07-09 06:19:00,67.0,65.0,30.10,East,91,0.0,0.0,94,0.00,,,0.00,weatherlink.com 1.10,2013-07-09 04:19:00,
2013-07-09 06:33:00,65.6,63.0,30.10,East,99,0.0,1.0,92,0.00,,,0.00,weatherlink.com 1.10,2013-07-09 04:33:00,
2013-07-09 06:48:00,66.0,65.0,30.10,NE,53,0.0,0.0,95,0.00,,,0.00,weatherlink.com 1.10,2013-07-09 04:48:00,
2013-07-09 07:03:00,67.3,66.0,30.10,South,180,0.0,0.0,94,0.00,,,0.00,weatherlink.com 1.10,2013-07-09 05:03:00,
2013-07-09 07:18:00,68.3,66.0,30.10,SW,220,0.0,0.0,93,0.00,,,0.00,weatherlink.com 1.10,2013-07-09 05:18:00,
2013-07-09 07:33:00,69.8,68.0,30.11,SW,215,0.0,1.0,93,0.00,,,0.00,weatherlink.com 1.10,2013-07-09 05:33:00,
2013-07-09 07:48:00,70.5,68.0,30.10,SSW,205,2.0,2.0,92,0.00,,,0.00,weatherlink.com 1.10,2013-07-09 05:48:00,
2013-07-09 08:03:00,71.3,69.0,30.10,South,186,2.0,4.0,91,0.00,,,0.00,weatherlink.com 1.10,2013-07-09 06:03:00,
2013-07-09 08:18:00,71.8,69.0,30.11,SSW,212,0.0,3.0,89,0.00,,,0.00,weatherlink.com 1.10,2013-07-09 06:18:00,
2013-07-09 08:34:00,73.8,70.0,30.11,South,186,3.0,4.0,87,0.00,,,0.00,weatherlink.com 1.10,2013-07-09 06:34:00,
2013-07-09 08:49:00,75.1,69.0,30.11,SE,143,3.0,5.0,82,0.00,,,0.00,weatherlink.com 1.10,2013-07-09 06:49:00,
2013-07-09 09:04:00,76.9,70.0,30.11,SW,226,2.0,3.0,78,0.00,,,0.00,weatherlink.com 1.10,2013-07-09 07:04:00,
2013-07-09 09:19:00,78.5,67.0,30.10,SW,224,3.0,4.0,67,0.00,,,0.00,weatherlink.com 1.10,2013-07-09 07:19:00,
2013-07-09 09:34:00,79.6,64.0,30.10,West,264,4.0,7.0,59,0.00,,,0.00,weatherlink.com 1.10,2013-07-09 07:34:00,
2013-07-09 10:04:00,80.7,63.0,30.10,WNW,293,1.0,6.0,56,0.00,,,0.00,weatherlink.com 1.10,2013-07-09 08:04:00,
2013-07-09 10:19:00,81.5,64.0,30.10,SSW,200,1.0,7.0,55,0.00,,,0.00,weatherlink.com 1.10,2013-07-09 08:19:00,
2013-07-09 10:34:00,82.3,63.0,30.10,WNW,293,7.0,11.0,52,0.00,,,0.00,weatherlink.com 1.10,2013-07-09 08:34:00,
2013-07-09 10:49:00,82.9,64.0,30.11,West,267,6.0,8.0,53,0.00,,,0.00,weatherlink.com 1.10,2013-07-09 08:49:00,
2013-07-09 11:04:00,82.6,64.0,30.11,West,276,5.0,10.0,53,0.00,,,0.00,weatherlink.com 1.10,2013-07-09 09:04:00,
2013-07-09 11:19:00,82.7,63.0,30.11,WNW,283,8.0,13.0,52,0.00,,,0.00,weatherlink.com 1.10,2013-07-09 09:19:00,
2013-07-09 11:34:00,83.3,62.0,30.11,West,273,7.0,12.0,49,0.00,,,0.00,weatherlink.com 1.10,2013-07-09 09:34:00,
2013-07-09 11:49:00,83.0,62.0,30.10,West,273,9.0,11.0,49,0.00,,,0.00,weatherlink.com 1.10,2013-07-09 09:49:00,
2013-07-09 12:04:00,84.1,62.0,30.10,West,267,3.0,12.0,48,0.00,,,0.00,weatherlink.com 1.10,2013-07-09 10:04:00,
2013-07-09 12:19:00,85.0,63.0,30.10,WNW,290,5.0,11.0,47,0.00,,,0.00,weatherlink.com 1.10,2013-07-09 10:19:00,
2013-07-09 12:34:00,84.4,61.0,30.10,WNW,288,5.0,13.0,46,0.00,,,0.00,weatherlink.com 1.10,2013-07-09 10:34:00,
2013-07-09 12:49:00,84.3,61.0,30.10,WSW,250,8.0,13.0,46,0.00,,,0.00,weatherlink.com 1.10,2013-07-09 10:49:00,
2013-07-09 13:04:00,85.0,62.0,30.09,WNW,293,13.0,14.0,46,0.00,,,0.00,weatherlink.com 1.10,2013-07-09 11:04:00,
2013-07-09 13:19:00,84.0,62.0,30.10,West,276,7.0,14.0,47,0.00,,,0.00,weatherlink.com 1.10,2013-07-09 11:19:00,
2013-07-09 13:34:00,85.2,61.0,30.09,West,263,9.0,13.0,44,0.00,,,0.00,weatherlink.com 1.10,2013-07-09 11:34:00,
2013-07-09 13:49:00,85.4,61.0,30.09,WSW,243,11.0,12.0,44,0.00,,,0.00,weatherlink.com 1.10,2013-07-09 11:49:00,
2013-07-09 14:04:00,85.0,61.0,30.08,WNW,293,5.0,15.0,45,0.00,,,0.00,weatherlink.com 1.10,2013-07-09 12:04:00,
2013-07-09 14:19:00,85.3,62.0,30.08,West,259,8.0,12.0,45,0.00,,,0.00,weatherlink.com 1.10,2013-07-09 12:19:00,
2013-07-09 14:34:00,85.0,61.0,30.08,West,274,6.0,12.0,44,0.00,,,0.00,weatherlink.com 1.10,2013-07-09 12:34:00,
2013-07-09 14:49:00,85.7,61.0,30.08,West,259,5.0,14.0,44,0.00,,,0.00,weatherlink.com 1.10,2013-07-09 12:49:00,
2013-07-09 15:05:00,84.6,60.0,30.08,West,276,9.0,16.0,44,0.00,,,0.00,weatherlink.com 1.10,2013-07-09 13:05:00,
2013-07-09 15:20:00,84.9,60.0,30.07,West,276,11.0,14.0,43,0.00,,,0.00,weatherlink.com 1.10,2013-07-09 13:20:00,
2013-07-09 15:35:00,85.3,60.0,30.07,West,276,5.0,15.0,43,0.00,,,0.00,weatherlink.com 1.10,2013-07-09 13:35:00,
2013-07-09 15:50:00,85.4,60.0,30.06,WNW,302,8.0,14.0,43,0.00,,,0.00,weatherlink.com 1.10,2013-07-09 13:50:00,
2013-07-09 16:05:00,85.2,60.0,30.07,West,280,9.0,12.0,43,0.00,,,0.00,weatherlink.com 1.10,2013-07-09 14:05:00,
2013-07-09 16:20:00,85.0,60.0,30.06,WNW,286,7.0,13.0,43,0.00,,,0.00,weatherlink.com 1.10,2013-07-09 14:20:00,
2013-07-09 16:35:00,85.0,60.0,30.06,WNW,301,10.0,15.0,43,0.00,,,0.00,weatherlink.com 1.10,2013-07-09 14:35:00,
2013-07-09 16:50:00,84.4,61.0,30.06,WNW,297,8.0,13.0,45,0.00,,,0.00,weatherlink.com 1.10,2013-07-09 14:50:00,
2013-07-09 17:05:00,84.1,61.0,30.05,WNW,286,9.0,12.0,46,0.00,,,0.00,weatherlink.com 1.10,2013-07-09 15:05:00,
2013-07-09 17:20:00,84.4,61.0,30.05,West,276,12.0,16.0,46,0.00,,,0.00,weatherlink.com 1.10,2013-07-09 15:20:00,
2013-07-09 17:35:00,84.1,62.0,30.05,WNW,298,7.0,13.0,47,0.00,,,0.00,weatherlink.com 1.10,2013-07-09 15:35:00,
2013-07-09 17:50:00,83.5,62.0,30.05,West,276,4.0,13.0,48,0.00,,,0.00,weatherlink.com 1.10,2013-07-09 15:50:00,
2013-07-09 18:05:00,83.3,62.0,30.04,NW,314,7.0,13.0,49,0.00,,,0.00,weatherlink.com 1.10,2013-07-09 16:05:00,
2013-07-09 18:20:00,83.9,63.0,30.04,West,268,5.0,9.0,50,0.00,,,0.00,weatherlink.com 1.10,2013-07-09 16:20:00,
2013-07-09 18:35:00,83.0,64.0,30.04,NW,319,3.0,12.0,52,0.00,,,0.00,weatherlink.com 1.10,2013-07-09 16:35:00,
2013-07-09 18:50:00,83.4,64.0,30.03,NW,306,7.0,9.0,52,0.00,,,0.00,weatherlink.com 1.10,2013-07-09 16:50:00,
2013-07-09 19:05:00,83.4,63.0,30.04,NW,308,5.0,10.0,51,0.00,,,0.00,weatherlink.com 1.10,2013-07-09 17:05:00,
2013-07-09 19:20:00,83.1,64.0,30.03,WNW,297,5.0,8.0,53,0.00,,,0.00,weatherlink.com 1.10,2013-07-09 17:20:00,
2013-07-09 19:35:00,82.4,64.0,30.03,WNW,287,4.0,10.0,54,0.00,,,0.00,weatherlink.com 1.10,2013-07-09 17:35:00,
2013-07-09 19:50:00,81.7,65.0,30.03,West,274,7.0,10.0,57,0.00,,,0.00,weatherlink.com 1.10,2013-07-09 17:50:00,
2013-07-09 20:05:00,80.9,66.0,30.03,WNW,297,6.0,9.0,60,0.00,,,0.00,weatherlink.com 1.10,2013-07-09 18:05:00,
2013-07-09 20:20:00,80.3,66.0,30.04,WNW,284,5.0,8.0,62,0.00,,,0.00,weatherlink.com 1.10,2013-07-09 18:20:00,
2013-07-09 20:35:00,79.6,66.0,30.04,West,280,4.0,7.0,64,0.00,,,0.00,weatherlink.com 1.10,2013-07-09 18:35:00,
2013-07-09 20:50:00,79.1,67.0,30.04,WNW,295,3.0,6.0,66,0.00,,,0.00,weatherlink.com 1.10,2013-07-09 18:50:00,
2013-07-09 21:05:00,78.8,66.0,30.04,West,281,2.0,4.0,65,0.00,,,0.00,weatherlink.com 1.10,2013-07-09 19:05:00,
2013-07-09 21:20:00,78.6,66.0,30.04,NNW,331,2.0,3.0,65,0.00,,,0.00,weatherlink.com 1.10,2013-07-09 19:20:00,
2013-07-09 21:35:00,78.1,67.0,30.05,West,281,1.0,2.0,68,0.00,,,0.00,weatherlink.com 1.10,2013-07-09 19:35:00,
2013-07-09 21:50:00,77.7,67.0,30.05,WNW,294,1.0,2.0,69,0.00,,,0.00,weatherlink.com 1.10,2013-07-09 19:50:00,
2013-07-09 22:05:00,77.0,68.0,30.05,West,259,2.0,3.0,73,0.00,,,0.00,weatherlink.com 1.10,2013-07-09 20:05:00,
2013-07-09 22:20:00,76.8,68.0,30.05,West,278,2.0,2.0,74,0.00,,,0.00,weatherlink.com 1.10,2013-07-09 20:20:00,
2013-07-09 22:35:00,76.3,68.0,30.05,NW,307,1.0,2.0,75,0.00,,,0.00,weatherlink.com 1.10,2013-07-09 20:35:00,
2013-07-09 22:50:00,75.8,68.0,30.06,West,276,1.0,3.0,77,0.00,,,0.00,weatherlink.com 1.10,2013-07-09 20:50:00,
2013-07-09 23:05:00,75.5,68.0,30.06,WNW,303,0.0,1.0,78,0.00,,,0.00,weatherlink.com 1.10,2013-07-09 21:05:00,
2013-07-09 23:20:00,74.9,68.0,30.07,East,100,0.0,2.0,78,0.00,,,0.00,weatherlink.com 1.10,2013-07-09 21:20:00,
2013-07-09 23:35:00,74.9,68.0,30.07,NE,39,0.0,0.0,78,0.00,,,0.00,weatherlink.com 1.10,2013-07-09 21:35:00,
2013-07-09 23:50:00,74.4,68.0,30.06,NNE,14,0.0,0.0,79,0.00,,,0.00,weatherlink.com 1.10,2013-07-09 21:50:00,